sensor_id;sensor_type;location;lat;lon;timestamp;temperature;humidity
6518;DHT22;3292;48.944;9.240;2024-01-27T00:01:43;3.00;99.90
6518;DHT22;3292;48.944;9.240;2024-01-27T00:04:10;3.00;99.90
6518;DHT22;3292;48.944;9.240;2024-01-27T00:06:38;2.90;99.90
6518;DHT22;3292;48.944;9.240;2024-01-27T00:09:07;2.90;99.90
6518;DHT22;3292;48.944;9.240;2024-01-27T00:11:34;2.90;99.90
6518;DHT22;3292;48.944;9.240;2024-01-27T00:14:01;2.80;99.90
6518;DHT22;3292;48.944;9.240;2024-01-27T00:16:28;2.80;99.90
6518;DHT22;3292;48.944;9.240;2024-01-27T00:18:55;2.80;99.90
6518;DHT22;3292;48.944;9.240;2024-01-27T00:21:22;2.70;99.90
6518;DHT22;3292;48.944;9.240;2024-01-27T00:23:50;2.70;99.90
6518;DHT22;3292;48.944;9.240;2024-01-27T00:26:17;2.70;99.90
6518;DHT22;3292;48.944;9.240;2024-01-27T00:28:43;2.60;99.90
6518;DHT22;3292;48.944;9.240;2024-01-27T00:31:10;2.60;99.90
6518;DHT22;3292;48.944;9.240;2024-01-27T00:33:37;2.50;99.90
6518;DHT22;3292;48.944;9.240;2024-01-27T00:36:04;2.40;99.90
6518;DHT22;3292;48.944;9.240;2024-01-27T00:38:31;2.40;99.90
6518;DHT22;3292;48.944;9.240;2024-01-27T00:40:59;2.30;99.90
6518;DHT22;3292;48.944;9.240;2024-01-27T00:43:26;2.30;99.90
6518;DHT22;3292;48.944;9.240;2024-01-27T00:45:53;2.20;99.90
6518;DHT22;3292;48.944;9.240;2024-01-27T00:48:20;2.20;99.90
6518;DHT22;3292;48.944;9.240;2024-01-27T00:50:46;2.20;99.90
6518;DHT22;3292;48.944;9.240;2024-01-27T00:53:13;2.10;99.90
6518;DHT22;3292;48.944;9.240;2024-01-27T00:55:40;2.10;99.90
6518;DHT22;3292;48.944;9.240;2024-01-27T00:58:09;2.10;99.90
6518;DHT22;3292;48.944;9.240;2024-01-27T01:00:35;2.00;99.90
6518;DHT22;3292;48.944;9.240;2024-01-27T01:03:02;2.00;99.90
6518;DHT22;3292;48.944;9.240;2024-01-27T01:05:29;2.00;99.90
6518;DHT22;3292;48.944;9.240;2024-01-27T01:07:56;1.90;99.90
6518;DHT22;3292;48.944;9.240;2024-01-27T01:10:23;1.90;99.90
6518;DHT22;3292;48.944;9.240;2024-01-27T01:12:50;1.90;99.90
6518;DHT22;3292;48.944;9.240;2024-01-27T01:15:18;1.80;99.90
6518;DHT22;3292;48.944;9.240;2024-01-27T01:17:45;1.80;99.90
6518;DHT22;3292;48.944;9.240;2024-01-27T01:20:11;1.80;99.90
6518;DHT22;3292;48.944;9.240;2024-01-27T01:22:38;1.70;99.90
6518;DHT22;3292;48.944;9.240;2024-01-27T01:25:06;1.70;99.90
6518;DHT22;3292;48.944;9.240;2024-01-27T01:27:33;1.70;99.90
6518;DHT22;3292;48.944;9.240;2024-01-27T01:29:59;1.60;99.90
6518;DHT22;3292;48.944;9.240;2024-01-27T01:32:27;1.60;99.90
6518;DHT22;3292;48.944;9.240;2024-01-27T01:34:54;1.60;99.90
6518;DHT22;3292;48.944;9.240;2024-01-27T01:37:21;1.60;99.90
6518;DHT22;3292;48.944;9.240;2024-01-27T01:39:48;1.60;99.90
6518;DHT22;3292;48.944;9.240;2024-01-27T01:42:14;1.50;99.90
6518;DHT22;3292;48.944;9.240;2024-01-27T01:44:41;1.50;99.90
6518;DHT22;3292;48.944;9.240;2024-01-27T01:47:08;1.50;99.90
6518;DHT22;3292;48.944;9.240;2024-01-27T01:49:37;1.50;99.90
6518;DHT22;3292;48.944;9.240;2024-01-27T01:52:05;1.50;99.90
6518;DHT22;3292;48.944;9.240;2024-01-27T01:54:32;1.50;99.90
6518;DHT22;3292;48.944;9.240;2024-01-27T01:56:58;1.30;99.90
6518;DHT22;3292;48.944;9.240;2024-01-27T01:59:26;1.30;99.90
6518;DHT22;3292;48.944;9.240;2024-01-27T02:01:53;1.20;99.90
6518;DHT22;3292;48.944;9.240;2024-01-27T02:04:19;1.20;99.90
6518;DHT22;3292;48.944;9.240;2024-01-27T02:06:47;1.00;99.90
6518;DHT22;3292;48.944;9.240;2024-01-27T02:09:14;1.20;99.90
6518;DHT22;3292;48.944;9.240;2024-01-27T02:11:41;1.10;99.90
6518;DHT22;3292;48.944;9.240;2024-01-27T02:14:08;1.10;99.90
6518;DHT22;3292;48.944;9.240;2024-01-27T02:16:35;1.10;99.90
6518;DHT22;3292;48.944;9.240;2024-01-27T02:19:01;1.10;99.90
6518;DHT22;3292;48.944;9.240;2024-01-27T02:21:28;1.10;99.90
6518;DHT22;3292;48.944;9.240;2024-01-27T02:23:56;1.10;99.90
6518;DHT22;3292;48.944;9.240;2024-01-27T02:26:25;1.10;99.90
6518;DHT22;3292;48.944;9.240;2024-01-27T02:28:52;1.00;99.90
6518;DHT22;3292;48.944;9.240;2024-01-27T02:31:19;1.00;99.90
6518;DHT22;3292;48.944;9.240;2024-01-27T02:33:46;0.90;99.90
6518;DHT22;3292;48.944;9.240;2024-01-27T02:36:12;0.90;99.90
6518;DHT22;3292;48.944;9.240;2024-01-27T02:38:39;0.90;99.90
6518;DHT22;3292;48.944;9.240;2024-01-27T02:41:06;0.90;99.90
6518;DHT22;3292;48.944;9.240;2024-01-27T02:43:34;0.90;99.90
6518;DHT22;3292;48.944;9.240;2024-01-27T02:46:01;0.90;99.90
6518;DHT22;3292;48.944;9.240;2024-01-27T02:48:28;0.90;99.90
6518;DHT22;3292;48.944;9.240;2024-01-27T02:50:55;0.90;99.90
6518;DHT22;3292;48.944;9.240;2024-01-27T02:53:22;0.90;99.90
6518;DHT22;3292;48.944;9.240;2024-01-27T02:55:48;0.90;99.90
6518;DHT22;3292;48.944;9.240;2024-01-27T02:58:16;0.90;99.90
6518;DHT22;3292;48.944;9.240;2024-01-27T03:00:44;0.90;99.90
6518;DHT22;3292;48.944;9.240;2024-01-27T03:03:10;0.90;99.90
6518;DHT22;3292;48.944;9.240;2024-01-27T03:05:37;0.80;99.90
6518;DHT22;3292;48.944;9.240;2024-01-27T03:08:05;0.90;99.90
6518;DHT22;3292;48.944;9.240;2024-01-27T03:10:32;0.90;99.90
6518;DHT22;3292;48.944;9.240;2024-01-27T03:12:58;0.80;99.90
6518;DHT22;3292;48.944;9.240;2024-01-27T03:15:25;0.70;99.90
6518;DHT22;3292;48.944;9.240;2024-01-27T03:17:53;0.60;99.90
6518;DHT22;3292;48.944;9.240;2024-01-27T03:20:20;0.50;99.90
6518;DHT22;3292;48.944;9.240;2024-01-27T03:22:47;0.50;99.90
6518;DHT22;3292;48.944;9.240;2024-01-27T03:25:14;0.40;99.90
6518;DHT22;3292;48.944;9.240;2024-01-27T03:27:41;0.40;99.90
6518;DHT22;3292;48.944;9.240;2024-01-27T03:30:08;0.40;99.90
6518;DHT22;3292;48.944;9.240;2024-01-27T03:32:35;0.40;99.90
6518;DHT22;3292;48.944;9.240;2024-01-27T03:35:04;0.50;99.90
6518;DHT22;3292;48.944;9.240;2024-01-27T03:37:31;0.40;99.90
6518;DHT22;3292;48.944;9.240;2024-01-27T03:39:58;0.40;99.90
6518;DHT22;3292;48.944;9.240;2024-01-27T03:42:25;0.50;99.90
6518;DHT22;3292;48.944;9.240;2024-01-27T03:44:52;0.50;99.90
6518;DHT22;3292;48.944;9.240;2024-01-27T03:47:19;0.50;99.90
6518;DHT22;3292;48.944;9.240;2024-01-27T03:49:46;0.50;99.90
6518;DHT22;3292;48.944;9.240;2024-01-27T03:52:14;0.40;99.90
6518;DHT22;3292;48.944;9.240;2024-01-27T03:54:41;0.40;99.90
6518;DHT22;3292;48.944;9.240;2024-01-27T03:57:08;0.40;99.90
6518;DHT22;3292;48.944;9.240;2024-01-27T03:59:35;0.40;99.90
6518;DHT22;3292;48.944;9.240;2024-01-27T04:02:02;0.40;99.90
6518;DHT22;3292;48.944;9.240;2024-01-27T04:04:28;0.40;99.90
6518;DHT22;3292;48.944;9.240;2024-01-27T04:06:55;0.40;99.90
6518;DHT22;3292;48.944;9.240;2024-01-27T04:09:23;0.40;99.90
6518;DHT22;3292;48.944;9.240;2024-01-27T04:11:51;0.40;99.90
6518;DHT22;3292;48.944;9.240;2024-01-27T04:14:17;0.40;99.90
6518;DHT22;3292;48.944;9.240;2024-01-27T04:16:44;0.40;99.90
6518;DHT22;3292;48.944;9.240;2024-01-27T04:19:11;0.30;99.90
6518;DHT22;3292;48.944;9.240;2024-01-27T04:21:38;0.30;99.90
6518;DHT22;3292;48.944;9.240;2024-01-27T04:24:05;0.30;99.90
6518;DHT22;3292;48.944;9.240;2024-01-27T04:26:33;0.30;99.90
6518;DHT22;3292;48.944;9.240;2024-01-27T04:29:00;0.20;99.90
6518;DHT22;3292;48.944;9.240;2024-01-27T04:31:26;0.20;99.90
6518;DHT22;3292;48.944;9.240;2024-01-27T04:33:53;0.20;99.90
6518;DHT22;3292;48.944;9.240;2024-01-27T04:36:26;0.10;99.90
6518;DHT22;3292;48.944;9.240;2024-01-27T04:38:54;0.10;99.90
6518;DHT22;3292;48.944;9.240;2024-01-27T04:41:21;0.10;99.90
6518;DHT22;3292;48.944;9.240;2024-01-27T04:43:49;0.10;99.90
6518;DHT22;3292;48.944;9.240;2024-01-27T04:46:16;0.10;99.90
6518;DHT22;3292;48.944;9.240;2024-01-27T04:48:43;0.10;99.90
6518;DHT22;3292;48.944;9.240;2024-01-27T04:51:10;0.10;99.90
6518;DHT22;3292;48.944;9.240;2024-01-27T04:53:36;0.10;99.90
6518;DHT22;3292;48.944;9.240;2024-01-27T04:56:04;0.10;99.90
6518;DHT22;3292;48.944;9.240;2024-01-27T04:58:33;0.10;99.90
6518;DHT22;3292;48.944;9.240;2024-01-27T05:01:01;0.10;99.90
6518;DHT22;3292;48.944;9.240;2024-01-27T05:03:28;0.10;99.90
6518;DHT22;3292;48.944;9.240;2024-01-27T05:05:55;0.00;99.90
6518;DHT22;3292;48.944;9.240;2024-01-27T05:08:22;0.00;99.90
6518;DHT22;3292;48.944;9.240;2024-01-27T05:10:49;0.00;99.90
6518;DHT22;3292;48.944;9.240;2024-01-27T05:13:15;0.00;99.90
6518;DHT22;3292;48.944;9.240;2024-01-27T05:15:42;0.00;99.90
6518;DHT22;3292;48.944;9.240;2024-01-27T05:18:10;-0.10;99.90
6518;DHT22;3292;48.944;9.240;2024-01-27T05:20:37;-0.10;99.90
6518;DHT22;3292;48.944;9.240;2024-01-27T05:23:04;-0.10;99.90
6518;DHT22;3292;48.944;9.240;2024-01-27T05:25:31;-0.20;99.90
6518;DHT22;3292;48.944;9.240;2024-01-27T05:27:58;-0.20;99.90
6518;DHT22;3292;48.944;9.240;2024-01-27T05:30:24;-0.20;99.90
6518;DHT22;3292;48.944;9.240;2024-01-27T05:32:51;-0.30;99.90
6518;DHT22;3292;48.944;9.240;2024-01-27T05:35:20;-0.30;99.90
6518;DHT22;3292;48.944;9.240;2024-01-27T05:37:46;-0.30;99.90
6518;DHT22;3292;48.944;9.240;2024-01-27T05:40:13;-0.30;99.90
6518;DHT22;3292;48.944;9.240;2024-01-27T05:42:40;-0.40;99.90
6518;DHT22;3292;48.944;9.240;2024-01-27T05:45:09;-0.40;99.90
6518;DHT22;3292;48.944;9.240;2024-01-27T05:47:36;-0.50;99.90
6518;DHT22;3292;48.944;9.240;2024-01-27T05:50:03;-0.50;99.90
6518;DHT22;3292;48.944;9.240;2024-01-27T05:52:34;-0.50;99.90
6518;DHT22;3292;48.944;9.240;2024-01-27T05:55:01;-0.50;99.90
6518;DHT22;3292;48.944;9.240;2024-01-27T05:57:28;-0.60;99.90
6518;DHT22;3292;48.944;9.240;2024-01-27T05:59:55;-0.70;99.90
6518;DHT22;3292;48.944;9.240;2024-01-27T06:02:22;-0.70;99.90
6518;DHT22;3292;48.944;9.240;2024-01-27T06:04:49;-0.70;99.90
6518;DHT22;3292;48.944;9.240;2024-01-27T06:07:19;-0.70;99.90
6518;DHT22;3292;48.944;9.240;2024-01-27T06:09:47;-0.70;99.90
6518;DHT22;3292;48.944;9.240;2024-01-27T06:12:14;-0.70;99.90
6518;DHT22;3292;48.944;9.240;2024-01-27T06:14:41;-0.70;99.90
6518;DHT22;3292;48.944;9.240;2024-01-27T06:17:08;-0.80;99.90
6518;DHT22;3292;48.944;9.240;2024-01-27T06:19:35;-0.80;99.90
6518;DHT22;3292;48.944;9.240;2024-01-27T06:22:01;-0.80;99.90
6518;DHT22;3292;48.944;9.240;2024-01-27T06:24:28;-0.80;99.90
6518;DHT22;3292;48.944;9.240;2024-01-27T06:26:56;-0.80;99.90
6518;DHT22;3292;48.944;9.240;2024-01-27T06:29:23;-0.80;99.90
6518;DHT22;3292;48.944;9.240;2024-01-27T06:31:52;-0.80;99.90
6518;DHT22;3292;48.944;9.240;2024-01-27T06:34:19;-0.80;99.90
6518;DHT22;3292;48.944;9.240;2024-01-27T06:36:46;-0.90;99.90
6518;DHT22;3292;48.944;9.240;2024-01-27T06:39:12;-0.90;99.90
6518;DHT22;3292;48.944;9.240;2024-01-27T06:41:39;-0.90;99.90
6518;DHT22;3292;48.944;9.240;2024-01-27T06:44:07;-0.90;99.90
6518;DHT22;3292;48.944;9.240;2024-01-27T06:46:34;-1.00;99.90
6518;DHT22;3292;48.944;9.240;2024-01-27T06:49:01;-1.00;99.90
6518;DHT22;3292;48.944;9.240;2024-01-27T06:51:28;-0.90;99.90
6518;DHT22;3292;48.944;9.240;2024-01-27T06:53:55;-0.90;99.90
6518;DHT22;3292;48.944;9.240;2024-01-27T06:56:21;-1.00;99.90
6518;DHT22;3292;48.944;9.240;2024-01-27T06:58:48;-0.90;99.90
6518;DHT22;3292;48.944;9.240;2024-01-27T07:01:16;-0.90;99.90
6518;DHT22;3292;48.944;9.240;2024-01-27T07:03:43;-0.80;99.90
6518;DHT22;3292;48.944;9.240;2024-01-27T07:06:11;-0.90;99.90
6518;DHT22;3292;48.944;9.240;2024-01-27T07:08:37;-0.80;99.90
6518;DHT22;3292;48.944;9.240;2024-01-27T07:11:04;-0.80;99.90
6518;DHT22;3292;48.944;9.240;2024-01-27T07:13:32;-0.80;99.90
6518;DHT22;3292;48.944;9.240;2024-01-27T07:15:59;-0.80;99.90
6518;DHT22;3292;48.944;9.240;2024-01-27T07:18:27;-0.80;99.90
6518;DHT22;3292;48.944;9.240;2024-01-27T07:20:54;-0.80;99.90
6518;DHT22;3292;48.944;9.240;2024-01-27T07:23:21;-0.80;99.90
6518;DHT22;3292;48.944;9.240;2024-01-27T07:25:48;-0.80;99.90
6518;DHT22;3292;48.944;9.240;2024-01-27T07:28:15;-0.80;99.90
6518;DHT22;3292;48.944;9.240;2024-01-27T07:30:44;-0.70;99.90
6518;DHT22;3292;48.944;9.240;2024-01-27T07:33:11;-0.70;99.90
6518;DHT22;3292;48.944;9.240;2024-01-27T07:35:39;-0.70;99.90
6518;DHT22;3292;48.944;9.240;2024-01-27T07:38:06;-0.70;99.90
6518;DHT22;3292;48.944;9.240;2024-01-27T07:40:33;-0.70;99.90
6518;DHT22;3292;48.944;9.240;2024-01-27T07:43:00;-0.60;99.90
6518;DHT22;3292;48.944;9.240;2024-01-27T07:45:27;-0.70;99.90
6518;DHT22;3292;48.944;9.240;2024-01-27T07:47:55;-0.70;99.90
6518;DHT22;3292;48.944;9.240;2024-01-27T07:50:22;-0.60;99.90
6518;DHT22;3292;48.944;9.240;2024-01-27T07:52:50;-0.60;99.90
6518;DHT22;3292;48.944;9.240;2024-01-27T07:55:17;-0.60;99.90
6518;DHT22;3292;48.944;9.240;2024-01-27T07:57:44;-0.50;99.90
6518;DHT22;3292;48.944;9.240;2024-01-27T08:00:11;-0.40;99.90
6518;DHT22;3292;48.944;9.240;2024-01-27T08:02:38;-0.40;99.90
6518;DHT22;3292;48.944;9.240;2024-01-27T08:05:05;-0.40;99.90
6518;DHT22;3292;48.944;9.240;2024-01-27T08:07:32;-0.40;99.90
6518;DHT22;3292;48.944;9.240;2024-01-27T08:10:00;-0.40;99.90
6518;DHT22;3292;48.944;9.240;2024-01-27T08:12:29;-0.40;99.90
6518;DHT22;3292;48.944;9.240;2024-01-27T08:14:56;-0.30;99.90
6518;DHT22;3292;48.944;9.240;2024-01-27T08:17:23;-0.20;99.90
6518;DHT22;3292;48.944;9.240;2024-01-27T08:19:50;-0.20;99.90
6518;DHT22;3292;48.944;9.240;2024-01-27T08:22:17;-0.10;99.90
6518;DHT22;3292;48.944;9.240;2024-01-27T08:24:44;0.00;99.90
6518;DHT22;3292;48.944;9.240;2024-01-27T08:27:12;0.00;99.90
6518;DHT22;3292;48.944;9.240;2024-01-27T08:29:39;0.00;99.90
6518;DHT22;3292;48.944;9.240;2024-01-27T08:32:06;0.10;99.90
6518;DHT22;3292;48.944;9.240;2024-01-27T08:34:33;0.20;99.90
6518;DHT22;3292;48.944;9.240;2024-01-27T08:37:01;0.20;99.90
6518;DHT22;3292;48.944;9.240;2024-01-27T08:39:28;0.30;99.90
6518;DHT22;3292;48.944;9.240;2024-01-27T08:41:55;0.30;99.90
6518;DHT22;3292;48.944;9.240;2024-01-27T08:44:23;0.30;99.90
6518;DHT22;3292;48.944;9.240;2024-01-27T08:46:50;0.40;99.90
6518;DHT22;3292;48.944;9.240;2024-01-27T08:49:17;0.50;99.90
6518;DHT22;3292;48.944;9.240;2024-01-27T08:51:43;0.60;99.90
6518;DHT22;3292;48.944;9.240;2024-01-27T08:54:10;0.70;99.90
6518;DHT22;3292;48.944;9.240;2024-01-27T08:56:39;0.70;99.90
6518;DHT22;3292;48.944;9.240;2024-01-27T08:59:07;0.80;99.90
6518;DHT22;3292;48.944;9.240;2024-01-27T09:01:35;0.90;99.90
6518;DHT22;3292;48.944;9.240;2024-01-27T09:04:02;0.90;99.90
6518;DHT22;3292;48.944;9.240;2024-01-27T09:06:29;1.00;99.90
6518;DHT22;3292;48.944;9.240;2024-01-27T09:08:56;1.20;99.90
6518;DHT22;3292;48.944;9.240;2024-01-27T09:11:23;1.20;99.90
6518;DHT22;3292;48.944;9.240;2024-01-27T09:13:52;1.30;99.90
6518;DHT22;3292;48.944;9.240;2024-01-27T09:16:19;1.30;99.90
6518;DHT22;3292;48.944;9.240;2024-01-27T09:18:48;1.40;99.90
6518;DHT22;3292;48.944;9.240;2024-01-27T09:21:16;1.50;99.90
6518;DHT22;3292;48.944;9.240;2024-01-27T09:23:46;1.60;99.90
6518;DHT22;3292;48.944;9.240;2024-01-27T09:26:12;1.60;99.90
6518;DHT22;3292;48.944;9.240;2024-01-27T09:28:40;1.60;99.90
6518;DHT22;3292;48.944;9.240;2024-01-27T09:31:09;1.70;99.90
6518;DHT22;3292;48.944;9.240;2024-01-27T09:33:36;1.80;99.90
6518;DHT22;3292;48.944;9.240;2024-01-27T09:36:05;1.90;99.90
6518;DHT22;3292;48.944;9.240;2024-01-27T09:38:32;2.00;99.90
6518;DHT22;3292;48.944;9.240;2024-01-27T09:40:59;2.00;99.90
6518;DHT22;3292;48.944;9.240;2024-01-27T09:43:28;2.10;99.90
6518;DHT22;3292;48.944;9.240;2024-01-27T09:45:56;2.10;99.90
6518;DHT22;3292;48.944;9.240;2024-01-27T09:48:23;2.20;99.90
6518;DHT22;3292;48.944;9.240;2024-01-27T09:50:52;2.20;99.90
6518;DHT22;3292;48.944;9.240;2024-01-27T09:53:21;2.30;99.90
6518;DHT22;3292;48.944;9.240;2024-01-27T09:55:48;2.50;99.90
6518;DHT22;3292;48.944;9.240;2024-01-27T09:58:15;2.60;99.90
6518;DHT22;3292;48.944;9.240;2024-01-27T10:00:42;2.70;99.90
6518;DHT22;3292;48.944;9.240;2024-01-27T10:03:09;2.70;99.90
6518;DHT22;3292;48.944;9.240;2024-01-27T10:05:37;2.80;99.90
6518;DHT22;3292;48.944;9.240;2024-01-27T10:08:06;2.90;99.90
6518;DHT22;3292;48.944;9.240;2024-01-27T10:10:35;2.90;99.90
6518;DHT22;3292;48.944;9.240;2024-01-27T10:13:04;2.90;99.90
6518;DHT22;3292;48.944;9.240;2024-01-27T10:15:31;3.00;99.90
6518;DHT22;3292;48.944;9.240;2024-01-27T10:18:04;3.00;99.90
6518;DHT22;3292;48.944;9.240;2024-01-27T10:20:32;3.00;99.90
6518;DHT22;3292;48.944;9.240;2024-01-27T10:23:09;3.20;99.90
6518;DHT22;3292;48.944;9.240;2024-01-27T10:25:38;3.20;99.90
6518;DHT22;3292;48.944;9.240;2024-01-27T10:28:06;3.50;99.90
6518;DHT22;3292;48.944;9.240;2024-01-27T10:30:33;3.60;99.90
6518;DHT22;3292;48.944;9.240;2024-01-27T10:33:01;3.60;99.90
6518;DHT22;3292;48.944;9.240;2024-01-27T10:35:28;3.60;99.90
6518;DHT22;3292;48.944;9.240;2024-01-27T10:37:56;3.60;99.90
6518;DHT22;3292;48.944;9.240;2024-01-27T10:40:22;3.70;99.90
6518;DHT22;3292;48.944;9.240;2024-01-27T10:43:00;3.80;99.90
6518;DHT22;3292;48.944;9.240;2024-01-27T10:45:33;3.90;99.90
6518;DHT22;3292;48.944;9.240;2024-01-27T10:48:02;3.90;99.90
6518;DHT22;3292;48.944;9.240;2024-01-27T10:50:29;4.00;99.90
6518;DHT22;3292;48.944;9.240;2024-01-27T10:52:58;4.20;99.90
6518;DHT22;3292;48.944;9.240;2024-01-27T10:55:25;4.20;99.90
6518;DHT22;3292;48.944;9.240;2024-01-27T10:57:54;4.30;99.90
6518;DHT22;3292;48.944;9.240;2024-01-27T11:00:23;4.50;99.90
6518;DHT22;3292;48.944;9.240;2024-01-27T11:02:52;4.70;99.90
6518;DHT22;3292;48.944;9.240;2024-01-27T11:05:20;4.70;99.90
6518;DHT22;3292;48.944;9.240;2024-01-27T11:07:48;4.80;99.90
6518;DHT22;3292;48.944;9.240;2024-01-27T11:10:16;4.90;99.90
6518;DHT22;3292;48.944;9.240;2024-01-27T11:12:44;5.00;99.90
6518;DHT22;3292;48.944;9.240;2024-01-27T11:15:13;5.20;99.90
6518;DHT22;3292;48.944;9.240;2024-01-27T11:17:40;5.40;99.90
6518;DHT22;3292;48.944;9.240;2024-01-27T11:20:11;5.50;99.90
6518;DHT22;3292;48.944;9.240;2024-01-27T11:22:38;5.60;99.90
6518;DHT22;3292;48.944;9.240;2024-01-27T11:25:15;5.80;99.90
6518;DHT22;3292;48.944;9.240;2024-01-27T11:27:44;5.70;99.90
6518;DHT22;3292;48.944;9.240;2024-01-27T11:30:28;5.80;99.90
6518;DHT22;3292;48.944;9.240;2024-01-27T11:32:56;5.90;99.90
6518;DHT22;3292;48.944;9.240;2024-01-27T11:35:23;6.00;99.90
6518;DHT22;3292;48.944;9.240;2024-01-27T11:37:50;6.20;99.90
6518;DHT22;3292;48.944;9.240;2024-01-27T11:40:17;6.40;99.90
6518;DHT22;3292;48.944;9.240;2024-01-27T11:42:53;6.50;99.90
6518;DHT22;3292;48.944;9.240;2024-01-27T11:45:20;6.70;99.90
6518;DHT22;3292;48.944;9.240;2024-01-27T11:47:48;6.90;99.90
6518;DHT22;3292;48.944;9.240;2024-01-27T11:50:17;7.00;99.90
6518;DHT22;3292;48.944;9.240;2024-01-27T11:52:45;7.00;99.90
6518;DHT22;3292;48.944;9.240;2024-01-27T11:55:11;7.10;99.90
6518;DHT22;3292;48.944;9.240;2024-01-27T11:57:40;7.10;99.90
6518;DHT22;3292;48.944;9.240;2024-01-27T12:00:08;7.10;99.90
6518;DHT22;3292;48.944;9.240;2024-01-27T12:02:36;7.10;99.90
6518;DHT22;3292;48.944;9.240;2024-01-27T12:05:05;7.20;99.90
6518;DHT22;3292;48.944;9.240;2024-01-27T12:07:32;6.90;99.90
6518;DHT22;3292;48.944;9.240;2024-01-27T12:09:59;6.90;99.90
6518;DHT22;3292;48.944;9.240;2024-01-27T12:12:25;6.80;99.90
6518;DHT22;3292;48.944;9.240;2024-01-27T12:14:53;6.80;99.90
6518;DHT22;3292;48.944;9.240;2024-01-27T12:17:23;6.80;99.90
6518;DHT22;3292;48.944;9.240;2024-01-27T12:19:51;6.70;99.90
6518;DHT22;3292;48.944;9.240;2024-01-27T12:22:24;6.60;99.90
6518;DHT22;3292;48.944;9.240;2024-01-27T12:24:52;6.60;99.90
6518;DHT22;3292;48.944;9.240;2024-01-27T12:27:19;6.60;99.90
6518;DHT22;3292;48.944;9.240;2024-01-27T12:29:48;6.70;99.90
6518;DHT22;3292;48.944;9.240;2024-01-27T12:32:15;6.70;99.90
6518;DHT22;3292;48.944;9.240;2024-01-27T12:34:42;6.60;99.90
6518;DHT22;3292;48.944;9.240;2024-01-27T12:37:11;6.60;99.90
6518;DHT22;3292;48.944;9.240;2024-01-27T12:39:42;6.60;99.90
6518;DHT22;3292;48.944;9.240;2024-01-27T12:42:09;6.50;99.90
6518;DHT22;3292;48.944;9.240;2024-01-27T12:44:36;6.60;99.90
6518;DHT22;3292;48.944;9.240;2024-01-27T12:47:03;6.50;99.90
6518;DHT22;3292;48.944;9.240;2024-01-27T12:49:30;6.40;99.90
6518;DHT22;3292;48.944;9.240;2024-01-27T12:51:57;6.40;99.90
6518;DHT22;3292;48.944;9.240;2024-01-27T12:54:24;6.50;99.90
6518;DHT22;3292;48.944;9.240;2024-01-27T12:56:52;6.50;99.90
6518;DHT22;3292;48.944;9.240;2024-01-27T12:59:19;6.40;99.90
6518;DHT22;3292;48.944;9.240;2024-01-27T13:01:46;6.40;99.90
6518;DHT22;3292;48.944;9.240;2024-01-27T13:04:13;6.40;99.90
6518;DHT22;3292;48.944;9.240;2024-01-27T13:06:40;6.40;99.90
6518;DHT22;3292;48.944;9.240;2024-01-27T13:09:07;6.30;99.90
6518;DHT22;3292;48.944;9.240;2024-01-27T13:11:36;6.40;99.90
6518;DHT22;3292;48.944;9.240;2024-01-27T13:14:05;6.50;99.90
6518;DHT22;3292;48.944;9.240;2024-01-27T13:16:32;6.40;99.90
6518;DHT22;3292;48.944;9.240;2024-01-27T13:18:59;6.30;99.90
6518;DHT22;3292;48.944;9.240;2024-01-27T13:21:25;6.30;99.90
6518;DHT22;3292;48.944;9.240;2024-01-27T13:23:52;6.20;99.90
6518;DHT22;3292;48.944;9.240;2024-01-27T13:26:19;6.20;99.90
6518;DHT22;3292;48.944;9.240;2024-01-27T13:28:46;6.20;99.90
6518;DHT22;3292;48.944;9.240;2024-01-27T13:31:15;6.20;99.90
6518;DHT22;3292;48.944;9.240;2024-01-27T13:33:42;6.20;99.90
6518;DHT22;3292;48.944;9.240;2024-01-27T13:36:09;6.30;99.90
6518;DHT22;3292;48.944;9.240;2024-01-27T13:38:36;6.30;99.90
6518;DHT22;3292;48.944;9.240;2024-01-27T13:41:03;6.40;99.90
6518;DHT22;3292;48.944;9.240;2024-01-27T13:43:30;6.40;99.90
6518;DHT22;3292;48.944;9.240;2024-01-27T13:45:57;6.40;99.90
6518;DHT22;3292;48.944;9.240;2024-01-27T13:48:25;6.40;99.90
6518;DHT22;3292;48.944;9.240;2024-01-27T13:50:52;6.30;99.90
6518;DHT22;3292;48.944;9.240;2024-01-27T13:53:19;6.30;99.90
6518;DHT22;3292;48.944;9.240;2024-01-27T13:55:46;6.20;99.90
6518;DHT22;3292;48.944;9.240;2024-01-27T13:58:13;6.20;99.90
6518;DHT22;3292;48.944;9.240;2024-01-27T14:00:40;6.20;99.90
6518;DHT22;3292;48.944;9.240;2024-01-27T14:03:06;6.10;99.90
6518;DHT22;3292;48.944;9.240;2024-01-27T14:05:35;6.10;99.90
6518;DHT22;3292;48.944;9.240;2024-01-27T14:08:06;6.10;99.90
6518;DHT22;3292;48.944;9.240;2024-01-27T14:10:35;6.10;99.90
6518;DHT22;3292;48.944;9.240;2024-01-27T14:13:02;6.10;99.90
6518;DHT22;3292;48.944;9.240;2024-01-27T14:15:30;6.30;99.90
6518;DHT22;3292;48.944;9.240;2024-01-27T14:17:56;6.20;99.90
6518;DHT22;3292;48.944;9.240;2024-01-27T14:20:23;6.10;99.90
6518;DHT22;3292;48.944;9.240;2024-01-27T14:22:51;6.10;99.90
6518;DHT22;3292;48.944;9.240;2024-01-27T14:25:18;6.00;99.90
6518;DHT22;3292;48.944;9.240;2024-01-27T14:27:45;6.10;99.90
6518;DHT22;3292;48.944;9.240;2024-01-27T14:30:13;6.30;99.90
6518;DHT22;3292;48.944;9.240;2024-01-27T14:32:40;6.40;99.90
6518;DHT22;3292;48.944;9.240;2024-01-27T14:35:07;6.40;99.90
6518;DHT22;3292;48.944;9.240;2024-01-27T14:37:34;6.40;99.90
6518;DHT22;3292;48.944;9.240;2024-01-27T14:40:03;6.40;99.90
6518;DHT22;3292;48.944;9.240;2024-01-27T14:42:30;6.40;99.90
6518;DHT22;3292;48.944;9.240;2024-01-27T14:44:57;6.40;99.90
6518;DHT22;3292;48.944;9.240;2024-01-27T14:47:24;6.30;99.90
6518;DHT22;3292;48.944;9.240;2024-01-27T14:49:51;6.20;99.90
6518;DHT22;3292;48.944;9.240;2024-01-27T14:52:18;6.20;99.90
6518;DHT22;3292;48.944;9.240;2024-01-27T14:54:45;6.20;99.90
6518;DHT22;3292;48.944;9.240;2024-01-27T14:57:13;6.20;99.90
6518;DHT22;3292;48.944;9.240;2024-01-27T14:59:40;6.20;99.90
6518;DHT22;3292;48.944;9.240;2024-01-27T15:02:07;6.10;99.90
6518;DHT22;3292;48.944;9.240;2024-01-27T15:04:35;6.00;99.90
6518;DHT22;3292;48.944;9.240;2024-01-27T15:07:02;5.90;99.90
6518;DHT22;3292;48.944;9.240;2024-01-27T15:09:29;5.80;99.90
6518;DHT22;3292;48.944;9.240;2024-01-27T15:11:55;5.80;99.90
6518;DHT22;3292;48.944;9.240;2024-01-27T15:14:24;5.70;99.90
6518;DHT22;3292;48.944;9.240;2024-01-27T15:16:50;5.70;99.90
6518;DHT22;3292;48.944;9.240;2024-01-27T15:19:18;5.70;99.90
6518;DHT22;3292;48.944;9.240;2024-01-27T15:21:45;5.60;99.90
6518;DHT22;3292;48.944;9.240;2024-01-27T15:24:12;5.60;99.90
6518;DHT22;3292;48.944;9.240;2024-01-27T15:26:39;5.50;99.90
6518;DHT22;3292;48.944;9.240;2024-01-27T15:29:06;5.50;99.90
6518;DHT22;3292;48.944;9.240;2024-01-27T15:31:34;5.40;99.90
6518;DHT22;3292;48.944;9.240;2024-01-27T15:34:01;5.40;99.90
6518;DHT22;3292;48.944;9.240;2024-01-27T15:36:28;5.30;99.90
6518;DHT22;3292;48.944;9.240;2024-01-27T15:38:55;5.30;99.90
6518;DHT22;3292;48.944;9.240;2024-01-27T15:41:22;5.20;99.90
6518;DHT22;3292;48.944;9.240;2024-01-27T15:43:49;5.20;99.90
6518;DHT22;3292;48.944;9.240;2024-01-27T15:46:15;5.10;99.90
6518;DHT22;3292;48.944;9.240;2024-01-27T15:48:43;5.10;99.90
6518;DHT22;3292;48.944;9.240;2024-01-27T15:51:10;5.00;99.90
6518;DHT22;3292;48.944;9.240;2024-01-27T15:53:37;5.00;99.90
6518;DHT22;3292;48.944;9.240;2024-01-27T15:56:04;5.00;99.90
6518;DHT22;3292;48.944;9.240;2024-01-27T15:58:32;4.90;99.90
6518;DHT22;3292;48.944;9.240;2024-01-27T16:00:59;4.80;99.90
6518;DHT22;3292;48.944;9.240;2024-01-27T16:03:26;4.80;99.90
6518;DHT22;3292;48.944;9.240;2024-01-27T16:05:54;4.80;99.90
6518;DHT22;3292;48.944;9.240;2024-01-27T16:08:21;4.70;99.90
6518;DHT22;3292;48.944;9.240;2024-01-27T16:10:48;4.70;99.90
6518;DHT22;3292;48.944;9.240;2024-01-27T16:13:15;4.60;99.90
6518;DHT22;3292;48.944;9.240;2024-01-27T16:15:42;4.60;99.90